createdAt,value
2022-11-05T00:01:08.896Z,41.28
2022-11-05T00:02:29.662Z,41.22
2022-11-05T00:03:50.699Z,41.89
2022-11-05T00:05:11.162Z,42.38
2022-11-05T00:06:32.014Z,42.34
2022-11-05T00:07:56.945Z,42.71
2022-11-05T00:09:17.723Z,41.90
2022-11-05T00:10:24.796Z,42.06
2022-11-05T00:11:41.821Z,41.80
2022-11-05T00:13:02.504Z,41.53
2022-11-05T00:14:23.401Z,40.90
2022-11-05T00:15:44.405Z,41.33
2022-11-05T00:16:47.730Z,40.66
2022-11-05T00:17:50.217Z,40.66
2022-11-05T00:19:07.258Z,40.43
2022-11-05T00:20:13.662Z,39.79
2022-11-05T00:21:30.661Z,39.78
2022-11-05T00:22:51.213Z,39.85
2022-11-05T00:24:11.985Z,39.79
2022-11-05T00:25:16.831Z,39.08
2022-11-05T00:26:21.398Z,39.18
2022-11-05T00:27:23.649Z,39.46
2022-11-05T00:28:27.576Z,39.38
2022-11-05T00:29:29.740Z,39.25
2022-11-05T00:30:32.875Z,39.33
2022-11-05T00:31:35.008Z,39.31
2022-11-05T00:32:38.276Z,39.50
2022-11-05T00:33:43.665Z,39.23
2022-11-05T00:34:45.975Z,39.56
2022-11-05T00:35:49.165Z,39.11
2022-11-05T00:36:51.562Z,39.17
2022-11-05T00:37:55.139Z,38.97
2022-11-05T00:38:57.229Z,38.29
2022-11-05T00:40:00.428Z,39.25
2022-11-05T00:41:02.758Z,38.75
2022-11-05T00:42:24.918Z,38.89
2022-11-05T00:43:45.771Z,39.63
2022-11-05T00:45:02.184Z,39.36
2022-11-05T00:46:05.504Z,39.95
2022-11-05T00:47:22.490Z,39.39
2022-11-05T00:48:43.329Z,39.27
2022-11-05T00:49:45.595Z,39.34
2022-11-05T00:50:48.784Z,40.20
2022-11-05T00:52:11.423Z,40.24
2022-11-05T00:53:15.013Z,40.26
2022-11-05T00:54:17.271Z,38.95
2022-11-05T00:55:20.603Z,38.22
2022-11-05T00:56:23.936Z,38.60
2022-11-05T00:57:27.595Z,38.93
2022-11-05T00:58:30.726Z,37.25
2022-11-05T00:59:32.861Z,38.50
2022-11-05T01:00:37.984Z,37.14
2022-11-05T01:01:40.228Z,37.27
2022-11-05T01:02:43.778Z,35.95
2022-11-05T01:03:51.521Z,39.55
2022-11-05T01:04:54.213Z,37.07
2022-11-05T01:06:00.350Z,37.43
2022-11-05T01:07:02.772Z,37.31
2022-11-05T01:08:06.080Z,37.49
2022-11-05T01:09:08.325Z,36.29
2022-11-05T01:10:11.650Z,36.53
2022-11-05T01:11:33.375Z,36.39
2022-11-05T01:12:37.259Z,37.84
2022-11-05T01:13:41.646Z,36.43
2022-11-05T01:14:44.069Z,37.51
2022-11-05T01:15:48.245Z,36.87
2022-11-05T01:16:50.604Z,36.90
2022-11-05T01:17:53.836Z,36.87
2022-11-05T01:18:56.039Z,37.22
2022-11-05T01:19:59.375Z,37.30
2022-11-05T01:21:11.452Z,39.03
2022-11-05T01:22:13.841Z,37.62
2022-11-05T01:23:18.164Z,37.28
2022-11-05T01:24:20.763Z,38.38
2022-11-05T01:25:24.014Z,36.98
2022-11-05T01:26:27.352Z,36.76
2022-11-05T01:27:30.944Z,36.99
2022-11-05T01:28:34.484Z,37.14
2022-11-05T01:29:37.689Z,37.63
2022-11-05T01:30:40.227Z,36.17
2022-11-05T01:31:43.586Z,36.71
2022-11-05T01:32:45.711Z,36.33
2022-11-05T01:33:49.492Z,36.19
2022-11-05T01:34:51.694Z,36.15
2022-11-05T01:35:55.069Z,36.18
2022-11-05T01:36:57.341Z,36.05
2022-11-05T01:38:00.603Z,36.19
2022-11-05T01:39:03.144Z,36.02
2022-11-05T01:40:08.424Z,36.82
2022-11-05T01:41:11.042Z,37.44
2022-11-05T01:42:20.370Z,36.61
2022-11-05T01:43:23.910Z,36.98
2022-11-05T01:44:55.825Z,36.70
2022-11-05T01:46:00.304Z,36.71
2022-11-05T01:47:02.685Z,36.05
2022-11-05T01:48:10.485Z,36.87
2022-11-05T01:49:20.394Z,36.29
2022-11-05T01:50:37.453Z,37.31
2022-11-05T01:51:40.499Z,37.26
2022-11-05T01:52:43.755Z,36.92
2022-11-05T01:53:50.015Z,37.26
2022-11-05T01:54:52.303Z,37.73
2022-11-05T01:56:00.695Z,37.30
2022-11-05T01:57:06.326Z,36.93
2022-11-05T01:58:14.386Z,37.68
2022-11-05T01:59:20.764Z,37.55
2022-11-05T02:00:25.406Z,37.09
2022-11-05T02:01:29.515Z,36.58
2022-11-05T02:02:32.119Z,36.54
2022-11-05T02:03:36.336Z,36.49
2022-11-05T02:04:42.883Z,37.22
2022-11-05T02:05:47.913Z,38.16
2022-11-05T02:06:50.262Z,36.83
2022-11-05T02:07:55.455Z,36.75
2022-11-05T02:09:02.283Z,37.76
2022-11-05T02:10:09.273Z,36.62
2022-11-05T02:11:13.355Z,36.14
2022-11-05T02:12:16.873Z,36.40
2022-11-05T02:13:19.141Z,36.64
2022-11-05T02:14:22.934Z,37.04
2022-11-05T02:15:40.577Z,36.21
2022-11-05T02:16:49.531Z,36.47
2022-11-05T02:17:58.077Z,35.73
2022-11-05T02:19:13.442Z,37.16
2022-11-05T02:20:28.838Z,35.65
2022-11-05T02:22:02.432Z,35.34
2022-11-05T02:23:38.929Z,35.91
2022-11-05T02:25:02.412Z,35.74
2022-11-05T02:26:31.217Z,35.68
2022-11-05T02:28:05.274Z,36.27
2022-11-05T02:29:41.545Z,36.34
2022-11-05T02:30:50.937Z,35.54
2022-11-05T02:32:00.973Z,35.93
2022-11-05T02:33:30.768Z,36.63
2022-11-05T02:34:42.653Z,36.86
2022-11-05T02:36:07.978Z,36.47
2022-11-05T02:37:18.539Z,35.63
2022-11-05T02:38:34.343Z,34.79
2022-11-05T02:39:45.184Z,34.52
2022-11-05T02:40:54.195Z,34.51
2022-11-05T02:42:09.387Z,34.15
2022-11-05T02:43:27.600Z,34.00
2022-11-05T02:44:39.132Z,34.61
2022-11-05T02:45:50.734Z,34.95
2022-11-05T02:47:00.484Z,34.65
2022-11-05T02:48:11.222Z,35.21
2022-11-05T02:49:27.150Z,35.43
2022-11-05T02:50:34.438Z,35.85
2022-11-05T02:51:45.816Z,35.21
2022-11-05T02:52:57.064Z,34.73
2022-11-05T02:54:08.836Z,35.50
2022-11-05T02:55:18.720Z,35.11
2022-11-05T02:56:36.821Z,35.04
2022-11-05T02:57:46.519Z,35.00
2022-11-05T02:58:49.174Z,35.99
2022-11-05T03:00:02.565Z,34.26
2022-11-05T03:01:07.162Z,34.99
2022-11-05T03:02:12.197Z,34.80
2022-11-05T03:03:24.910Z,36.08
2022-11-05T03:04:29.035Z,36.53
2022-11-05T03:05:39.933Z,35.56
2022-11-05T03:07:08.029Z,34.40
2022-11-05T03:08:19.114Z,34.60
2022-11-05T03:09:51.061Z,34.31
2022-11-05T03:10:59.936Z,33.70
2022-11-05T03:12:15.187Z,33.42
2022-11-05T03:13:22.785Z,33.59
2022-11-05T03:14:36.118Z,33.92
2022-11-05T03:15:51.061Z,34.67
2022-11-05T03:17:02.464Z,34.40
2022-11-05T03:18:13.644Z,34.46
2022-11-05T03:19:22.297Z,34.72
2022-11-05T03:20:30.254Z,35.07
2022-11-05T03:21:45.439Z,35.28
2022-11-05T03:22:54.962Z,34.19
2022-11-05T03:24:04.532Z,34.76
2022-11-05T03:25:12.229Z,34.90
2022-11-05T03:26:20.423Z,35.16
2022-11-05T03:27:28.171Z,34.33
2022-11-05T03:28:36.667Z,34.66
2022-11-05T03:29:43.823Z,34.82
2022-11-05T03:30:49.573Z,34.54
2022-11-05T03:31:55.148Z,35.11
2022-11-05T03:33:04.834Z,35.30
2022-11-05T03:34:12.010Z,35.40
2022-11-05T03:35:20.519Z,34.79
2022-11-05T03:36:27.871Z,34.98
2022-11-05T03:37:35.247Z,35.82
2022-11-05T03:38:40.353Z,35.72
2022-11-05T03:39:49.186Z,35.27
2022-11-05T03:40:55.485Z,35.84
2022-11-05T03:42:00.370Z,36.01
2022-11-05T03:43:06.802Z,36.95
2022-11-05T03:44:12.733Z,36.76
2022-11-05T03:45:19.264Z,35.96
2022-11-05T03:46:28.272Z,35.22
2022-11-05T03:47:32.899Z,36.32
2022-11-05T03:48:40.455Z,35.00
2022-11-05T03:49:54.827Z,35.48
2022-11-05T03:51:04.076Z,35.73
2022-11-05T03:52:11.540Z,36.09
2022-11-05T03:53:18.313Z,34.72
2022-11-05T03:54:21.122Z,36.21
2022-11-05T03:55:30.650Z,37.58
2022-11-05T03:56:38.684Z,35.65
2022-11-05T03:57:47.192Z,34.90
2022-11-05T03:58:53.357Z,35.27
2022-11-05T03:59:59.640Z,34.91
2022-11-05T04:01:02.843Z,35.34
2022-11-05T04:02:06.704Z,34.81
2022-11-05T04:03:09.473Z,35.49
2022-11-05T04:04:13.069Z,33.97
2022-11-05T04:05:16.863Z,34.80
2022-11-05T04:06:37.682Z,34.88
2022-11-05T04:08:03.786Z,36.84
2022-11-05T04:09:24.375Z,36.56
2022-11-05T04:10:44.847Z,36.16
2022-11-05T04:12:05.724Z,36.78
2022-11-05T04:13:25.707Z,36.46
2022-11-05T04:14:27.821Z,36.54
2022-11-05T04:15:31.527Z,36.39
2022-11-05T04:16:52.301Z,37.17
2022-11-05T04:17:55.627Z,36.51
2022-11-05T04:18:58.866Z,37.12
2022-11-05T04:20:19.587Z,37.41
2022-11-05T04:21:46.809Z,36.65
2022-11-05T04:23:07.676Z,37.33
2022-11-05T04:24:11.103Z,37.97
2022-11-05T04:25:14.658Z,38.13
2022-11-05T04:26:23.481Z,38.49
2022-11-05T04:27:25.924Z,37.87
2022-11-05T04:28:49.510Z,38.12
2022-11-05T04:30:10.282Z,37.94
2022-11-05T04:31:12.437Z,37.66
2022-11-05T04:32:14.525Z,37.46
2022-11-05T04:33:18.402Z,37.87
2022-11-05T04:34:22.291Z,38.01
2022-11-05T04:35:26.416Z,37.22
2022-11-05T04:36:30.080Z,37.12
2022-11-05T04:37:33.305Z,37.46
2022-11-05T04:38:36.481Z,37.53
2022-11-05T04:39:38.668Z,36.92
2022-11-05T04:40:42.207Z,37.18
2022-11-05T04:41:45.121Z,37.27
2022-11-05T04:42:48.372Z,37.36
2022-11-05T04:43:50.489Z,37.13
2022-11-05T04:44:53.662Z,37.34
2022-11-05T04:45:56.822Z,38.21
2022-11-05T04:46:59.170Z,38.69
2022-11-05T04:48:02.829Z,38.18
2022-11-05T04:49:04.949Z,38.56
2022-11-05T04:50:09.613Z,38.47
2022-11-05T04:51:11.860Z,39.51
2022-11-05T04:52:18.103Z,38.79
2022-11-05T04:53:20.328Z,39.35
2022-11-05T04:54:23.826Z,39.32
2022-11-05T04:55:27.069Z,38.58
2022-11-05T04:56:29.215Z,38.71
2022-11-05T04:57:32.862Z,39.11
2022-11-05T04:58:38.365Z,38.53
2022-11-05T04:59:41.573Z,39.00
2022-11-05T05:00:43.795Z,40.55
2022-11-05T05:01:47.139Z,42.23
2022-11-05T05:02:50.000Z,42.03
2022-11-05T05:03:54.254Z,41.39
2022-11-05T05:04:56.399Z,40.54
2022-11-05T05:06:03.796Z,41.93
2022-11-05T05:07:06.344Z,41.54
2022-11-05T05:08:10.946Z,41.58
2022-11-05T05:09:13.050Z,41.60
2022-11-05T05:10:16.363Z,40.84
2022-11-05T05:11:20.155Z,41.63
2022-11-05T05:12:23.943Z,41.42
2022-11-05T05:13:26.134Z,41.31
2022-11-05T05:14:29.302Z,40.84
2022-11-05T05:15:31.506Z,39.88
2022-11-05T05:16:34.607Z,39.83
2022-11-05T05:17:36.812Z,40.24
2022-11-05T05:18:45.932Z,39.26
2022-11-05T05:20:06.905Z,40.75
2022-11-05T05:21:27.774Z,40.72
2022-11-05T05:22:31.097Z,41.89
2022-11-05T05:23:34.682Z,41.47
2022-11-05T05:24:38.149Z,41.28
2022-11-05T05:25:40.363Z,41.83
2022-11-05T05:26:45.955Z,41.48
2022-11-05T05:27:48.204Z,40.93
2022-11-05T05:28:51.554Z,41.00
2022-11-05T05:29:53.715Z,40.71
2022-11-05T05:31:00.420Z,40.36
2022-11-05T05:32:02.550Z,40.03
2022-11-05T05:33:06.382Z,40.37
2022-11-05T05:34:11.184Z,39.48
2022-11-05T05:35:14.535Z,40.01
2022-11-05T05:36:16.795Z,40.58
2022-11-05T05:37:20.751Z,41.04
2022-11-05T05:38:23.111Z,40.40
2022-11-05T05:39:28.339Z,39.72
2022-11-05T05:40:30.566Z,40.28
2022-11-05T05:41:33.883Z,40.06
2022-11-05T05:42:41.770Z,40.41
2022-11-05T05:43:46.382Z,42.06
2022-11-05T05:44:48.866Z,42.01
2022-11-05T05:45:52.174Z,42.47
2022-11-05T05:46:54.743Z,41.89
2022-11-05T05:47:58.121Z,42.17
2022-11-05T05:49:00.453Z,40.32
2022-11-05T05:50:03.934Z,40.30
2022-11-05T05:51:08.151Z,39.60
2022-11-05T05:52:11.322Z,39.93
2022-11-05T05:53:13.816Z,39.57
2022-11-05T05:54:17.832Z,40.11
2022-11-05T05:55:21.415Z,39.72
2022-11-05T05:56:24.774Z,39.57
2022-11-05T05:57:26.920Z,39.94
2022-11-05T05:58:34.139Z,40.00
2022-11-05T05:59:37.494Z,41.14
2022-11-05T06:00:40.034Z,40.45
2022-11-05T06:01:43.495Z,41.50
2022-11-05T06:02:46.086Z,39.75
2022-11-05T06:03:50.302Z,40.04
2022-11-05T06:04:52.678Z,39.81
2022-11-05T06:06:00.703Z,40.10
2022-11-05T06:07:03.162Z,40.12
2022-11-05T06:08:07.181Z,40.64
2022-11-05T06:09:09.366Z,40.37
2022-11-05T06:10:12.623Z,40.55
2022-11-05T06:11:16.514Z,40.61
2022-11-05T06:12:19.698Z,40.60
2022-11-05T06:13:21.917Z,40.31
2022-11-05T06:14:25.240Z,40.70
2022-11-05T06:15:30.534Z,39.67
2022-11-05T06:16:39.207Z,39.87
2022-11-05T06:17:43.590Z,39.74
2022-11-05T06:18:47.271Z,39.48
2022-11-05T06:19:49.759Z,39.82
2022-11-05T06:20:53.148Z,39.92
2022-11-05T06:21:55.341Z,41.54
2022-11-05T06:22:59.284Z,40.33
2022-11-05T06:24:02.278Z,40.14
2022-11-05T06:25:06.483Z,39.79
2022-11-05T06:26:11.323Z,39.98
2022-11-05T06:27:15.998Z,39.71
2022-11-05T06:28:18.213Z,39.48
2022-11-05T06:29:21.595Z,40.37
2022-11-05T06:30:24.249Z,39.76
2022-11-05T06:31:27.469Z,39.41
2022-11-05T06:32:30.837Z,39.67
2022-11-05T06:33:34.187Z,39.18
2022-11-05T06:34:38.080Z,40.02
2022-11-05T06:35:40.240Z,40.28
2022-11-05T06:36:43.437Z,40.21
2022-11-05T06:37:45.658Z,40.66
2022-11-05T06:38:48.881Z,40.33
2022-11-05T06:39:51.068Z,40.26
2022-11-05T06:40:54.337Z,40.56
2022-11-05T06:42:17.121Z,40.68
2022-11-05T07:19:57.488Z,40.95
2022-11-05T07:20:59.953Z,40.23
2022-11-05T07:22:03.185Z,40.51
2022-11-05T07:23:07.661Z,40.62
2022-11-05T07:24:10.870Z,41.21
2022-11-05T07:25:13.046Z,41.57
2022-11-05T07:26:16.195Z,41.57
2022-11-05T07:27:18.503Z,41.11
2022-11-05T07:28:21.875Z,40.98
2022-11-05T07:29:24.346Z,40.71
2022-11-05T07:30:27.832Z,40.95
2022-11-05T07:31:30.025Z,40.88
2022-11-05T07:32:37.771Z,40.84
2022-11-05T07:33:40.164Z,41.20
2022-11-05T07:34:43.606Z,41.60
2022-11-05T07:35:47.191Z,41.02
2022-11-05T07:36:50.450Z,41.23
2022-11-05T07:37:54.271Z,42.14
2022-11-05T07:39:00.563Z,41.73
2022-11-05T07:40:03.115Z,42.21
2022-11-05T07:41:06.776Z,42.29
2022-11-05T07:42:13.432Z,42.56
2022-11-05T07:43:16.954Z,42.63
2022-11-05T07:44:20.300Z,43.02
2022-11-05T07:45:23.579Z,42.69
2022-11-05T07:46:27.000Z,43.03
2022-11-05T07:47:29.643Z,42.83
2022-11-05T07:48:32.915Z,42.53
2022-11-05T07:49:35.190Z,43.23
2022-11-05T07:50:39.029Z,43.52
2022-11-05T07:51:42.721Z,43.22
2022-11-05T07:52:46.257Z,43.86
2022-11-05T07:53:48.783Z,43.76
2022-11-05T07:54:52.046Z,43.03
2022-11-05T07:55:54.283Z,42.83
2022-11-05T07:56:57.583Z,41.99
2022-11-05T07:57:59.866Z,42.29
2022-11-05T07:59:03.160Z,42.34
2022-11-05T08:00:06.451Z,41.67
2022-11-05T08:01:09.928Z,41.94
2022-11-05T08:02:12.944Z,42.50
2022-11-05T08:03:18.577Z,41.59
2022-11-05T08:04:21.384Z,42.57
2022-11-05T08:05:24.848Z,42.60
2022-11-05T08:06:28.183Z,42.63
2022-11-05T08:07:31.832Z,42.37
2022-11-05T08:08:35.275Z,41.69
2022-11-05T08:09:37.741Z,41.39
2022-11-05T08:10:41.219Z,41.14
2022-11-05T08:11:43.422Z,41.41
2022-11-05T08:12:46.725Z,41.77
2022-11-05T08:13:48.947Z,41.40
2022-11-05T08:14:52.371Z,40.84
2022-11-05T08:15:56.762Z,40.99
2022-11-05T08:16:59.946Z,41.23
2022-11-05T08:18:03.373Z,40.06
2022-11-05T08:19:06.620Z,39.76
2022-11-05T08:20:10.101Z,39.85
2022-11-05T08:21:13.318Z,40.55
2022-11-05T08:22:15.691Z,40.28
2022-11-05T08:23:20.464Z,40.23
2022-11-05T08:24:23.698Z,40.60
2022-11-05T08:25:26.558Z,40.30
2022-11-05T08:26:29.907Z,38.92
2022-11-05T08:27:32.028Z,39.34
2022-11-05T08:28:35.209Z,39.14
2022-11-05T08:29:37.379Z,38.39
2022-11-05T08:30:41.148Z,38.45
2022-11-05T08:31:43.334Z,38.45
2022-11-05T08:32:46.633Z,38.57
2022-11-05T08:33:48.895Z,37.28
2022-11-05T08:34:52.056Z,37.31
2022-11-05T08:35:54.229Z,38.32
2022-11-05T08:36:57.519Z,39.48
2022-11-05T08:38:00.850Z,39.75
2022-11-05T08:39:05.561Z,39.45
2022-11-05T08:40:09.614Z,39.57
2022-11-05T08:41:12.805Z,37.44
2022-11-05T08:42:14.975Z,38.29
2022-11-05T08:43:18.924Z,37.37
2022-11-05T08:44:21.160Z,37.01
2022-11-05T08:45:24.875Z,36.46
2022-11-05T08:46:28.149Z,37.06
2022-11-05T08:47:30.411Z,36.17
2022-11-05T08:48:33.634Z,35.62
2022-11-05T08:49:36.925Z,36.32
2022-11-05T08:50:39.752Z,36.33
2022-11-05T08:51:44.618Z,35.76
2022-11-05T08:52:46.713Z,35.51
2022-11-05T08:53:49.863Z,35.29
2022-11-05T08:54:53.444Z,35.65
2022-11-05T08:55:59.619Z,34.70
2022-11-05T08:57:02.790Z,34.95
2022-11-05T08:58:07.644Z,34.21
2022-11-05T08:59:11.172Z,33.28
2022-11-05T09:00:14.326Z,34.06
2022-11-05T09:01:17.849Z,33.85
2022-11-05T09:02:20.165Z,34.35
2022-11-05T09:03:23.466Z,34.88
2022-11-05T09:04:25.624Z,34.53
2022-11-05T09:05:29.187Z,34.83
2022-11-05T09:06:32.481Z,34.14
2022-11-05T09:07:34.748Z,34.22
2022-11-05T09:08:38.086Z,33.57
2022-11-05T09:09:40.389Z,35.38
2022-11-05T09:10:46.256Z,34.33
2022-11-05T09:12:11.009Z,34.02
2022-11-05T09:13:18.373Z,34.47
2022-11-05T09:14:22.553Z,34.64
2022-11-05T09:15:26.413Z,34.74
2022-11-05T09:16:30.154Z,35.64
2022-11-05T09:17:32.457Z,34.41
2022-11-05T09:18:35.838Z,35.70
2022-11-05T09:19:40.020Z,34.78
2022-11-05T09:20:43.955Z,35.74
2022-11-05T09:21:46.535Z,34.46
2022-11-05T09:22:49.800Z,36.42
2022-11-05T09:23:52.339Z,34.70
2022-11-05T09:24:55.801Z,35.87
2022-11-05T09:26:00.502Z,34.60
2022-11-05T09:27:02.743Z,35.04
2022-11-05T09:28:14.623Z,34.14
2022-11-05T09:29:19.640Z,34.12
2022-11-05T09:30:22.010Z,32.97
2022-11-05T09:31:25.603Z,32.62
2022-11-05T09:32:27.862Z,33.10
2022-11-05T09:33:31.193Z,33.62
2022-11-05T09:34:33.810Z,33.39
2022-11-05T09:35:40.310Z,33.99
2022-11-05T09:36:44.495Z,33.10
2022-11-05T09:37:46.786Z,32.18
2022-11-05T09:38:50.004Z,32.74
2022-11-05T09:39:52.436Z,32.65
2022-11-05T09:41:00.972Z,33.29
2022-11-05T09:42:08.106Z,33.70
2022-11-05T09:43:17.500Z,33.87
2022-11-05T09:44:24.143Z,33.10
2022-11-05T09:45:28.884Z,33.71
2022-11-05T09:46:42.197Z,34.13
2022-11-05T09:47:50.843Z,34.16
2022-11-05T09:48:56.581Z,33.40
2022-11-05T09:50:02.615Z,34.11
2022-11-05T09:51:06.938Z,33.48
2022-11-05T09:52:14.318Z,33.17
2022-11-05T09:53:20.115Z,33.50
2022-11-05T09:54:26.814Z,34.49
2022-11-05T09:55:34.719Z,34.95
2022-11-05T09:56:41.590Z,35.12
2022-11-05T09:57:51.155Z,34.41
2022-11-05T09:58:59.535Z,33.99
2022-11-05T10:00:04.085Z,33.82
2022-11-05T10:01:12.908Z,33.82
2022-11-05T10:02:19.806Z,32.95
2022-11-05T10:03:24.687Z,33.09
2022-11-05T10:04:31.403Z,33.25
2022-11-05T10:05:35.848Z,33.64
2022-11-05T10:06:45.056Z,33.34
2022-11-05T10:07:51.690Z,33.57
2022-11-05T10:09:03.387Z,33.75
2022-11-05T10:10:09.575Z,33.70
2022-11-05T10:11:19.512Z,33.68
2022-11-05T10:12:26.332Z,33.77
2022-11-05T10:13:38.444Z,34.31
2022-11-05T10:14:46.235Z,34.71
2022-11-05T10:15:56.878Z,33.54
2022-11-05T10:17:05.381Z,33.74
2022-11-05T10:18:16.904Z,33.34
2022-11-05T10:19:24.738Z,34.24
2022-11-05T10:20:34.276Z,34.01
2022-11-05T10:22:04.850Z,34.24
2022-11-05T10:23:10.137Z,33.53
2022-11-05T10:24:15.787Z,34.47
2022-11-05T10:25:20.970Z,33.43
2022-11-05T10:26:27.066Z,34.05
2022-11-05T10:27:33.903Z,34.65
2022-11-05T10:28:39.271Z,34.21
2022-11-05T10:29:43.838Z,34.30
2022-11-05T10:30:49.917Z,34.39
2022-11-05T10:31:53.852Z,33.45
2022-11-05T10:33:00.802Z,33.19
2022-11-05T10:34:07.769Z,34.11
2022-11-05T10:35:15.034Z,34.20
2022-11-05T10:36:22.896Z,34.52
2022-11-05T10:37:25.909Z,34.30
2022-11-05T10:38:29.139Z,35.13
2022-11-05T10:39:34.285Z,34.64
2022-11-05T10:40:45.393Z,34.79
2022-11-05T10:42:05.030Z,34.80
2022-11-05T10:43:14.375Z,35.42
2022-11-05T10:44:31.016Z,36.18
2022-11-05T10:45:46.732Z,35.93
2022-11-05T10:46:59.386Z,35.72
2022-11-05T10:48:19.361Z,35.53
2022-11-05T10:49:39.074Z,35.87
2022-11-05T10:50:42.763Z,35.89
2022-11-05T10:51:46.830Z,36.49
2022-11-05T10:52:58.824Z,36.22
2022-11-05T10:54:06.871Z,36.18
2022-11-05T10:55:18.610Z,36.96
2022-11-05T10:56:34.272Z,37.26
2022-11-05T10:57:38.914Z,37.73
2022-11-05T10:58:56.061Z,37.90
2022-11-05T11:01:45.843Z,37.72
2022-11-05T11:02:50.481Z,38.18
2022-11-05T11:04:05.077Z,38.58
2022-11-05T11:05:09.057Z,38.12
2022-11-05T11:06:23.386Z,37.73
2022-11-05T11:07:27.269Z,37.82
2022-11-05T11:08:31.180Z,38.02
2022-11-05T11:09:37.639Z,38.35
2022-11-05T11:10:48.180Z,37.80
2022-11-05T11:12:00.827Z,38.19
2022-11-05T11:13:03.405Z,38.03
2022-11-05T11:14:19.802Z,37.41
2022-11-05T11:15:27.436Z,38.02
2022-11-05T11:16:35.384Z,38.91
2022-11-05T11:17:40.431Z,38.84
2022-11-05T11:18:44.137Z,39.67
2022-11-05T11:19:47.562Z,39.87
2022-11-05T11:20:49.720Z,39.46
2022-11-05T11:22:14.489Z,40.01
2022-11-05T11:23:18.869Z,39.78
2022-11-05T11:24:23.397Z,39.38
2022-11-05T11:25:29.340Z,39.52
2022-11-05T11:26:34.516Z,40.19
2022-11-05T11:27:38.657Z,40.96
2022-11-05T11:28:47.262Z,40.21
2022-11-05T11:29:59.500Z,40.37
2022-11-05T11:31:07.240Z,40.06
2022-11-05T11:32:14.499Z,41.01
2022-11-05T11:33:23.773Z,40.07
2022-11-05T11:34:30.735Z,41.17
2022-11-05T11:35:38.758Z,41.06
2022-11-05T11:36:47.070Z,40.72
2022-11-05T11:37:52.228Z,39.99
2022-11-05T11:39:01.290Z,40.61
2022-11-05T11:40:15.503Z,40.83
2022-11-05T11:41:27.177Z,41.89
2022-11-05T11:42:32.793Z,42.53
2022-11-05T11:43:40.391Z,42.47
2022-11-05T11:44:45.092Z,42.65
2022-11-05T11:45:51.307Z,41.41
2022-11-05T11:46:57.965Z,41.73
2022-11-05T11:48:04.621Z,41.78
2022-11-05T11:49:33.465Z,41.94
2022-11-05T11:50:39.550Z,43.29
2022-11-05T11:51:50.115Z,43.01
2022-11-05T11:52:52.842Z,42.92
2022-11-05T11:53:59.281Z,43.69
2022-11-05T11:55:19.860Z,43.75
2022-11-05T11:56:23.755Z,43.93
2022-11-05T11:57:27.820Z,43.31
2022-11-05T11:58:39.853Z,43.33
2022-11-05T12:00:09.189Z,43.63
2022-11-05T12:01:18.516Z,44.29
2022-11-05T12:03:01.899Z,43.71
2022-11-05T12:04:18.242Z,43.51
2022-11-05T12:05:34.011Z,44.24
2022-11-05T12:06:46.256Z,44.42
2022-11-05T12:07:53.320Z,44.24
2022-11-05T12:09:06.712Z,44.16
2022-11-05T12:10:23.026Z,44.52
2022-11-05T12:11:30.912Z,44.75
2022-11-05T12:12:43.793Z,44.20
2022-11-05T12:14:07.462Z,45.35
2022-11-05T12:15:37.460Z,45.32
2022-11-05T12:16:58.813Z,45.57
2022-11-05T12:18:05.034Z,45.10
2022-11-05T12:19:22.898Z,45.54
2022-11-05T12:20:36.539Z,45.75
2022-11-05T12:21:52.971Z,45.77
2022-11-05T12:23:14.619Z,46.18
2022-11-05T12:24:45.324Z,45.27
2022-11-05T12:25:57.082Z,46.53
2022-11-05T12:27:12.808Z,45.66
2022-11-05T12:28:31.061Z,45.42
2022-11-05T12:29:50.082Z,45.16
2022-11-05T12:31:01.105Z,45.59
2022-11-05T12:32:31.799Z,46.80
2022-11-05T12:33:45.016Z,46.60
2022-11-05T12:34:56.230Z,47.05
2022-11-05T12:36:14.661Z,46.01
2022-11-05T12:37:34.685Z,46.22
2022-11-05T12:38:55.893Z,47.01
2022-11-05T12:40:21.852Z,47.26
2022-11-05T12:41:28.157Z,46.78
2022-11-05T12:42:45.339Z,47.07
2022-11-05T12:43:59.821Z,46.75
2022-11-05T12:45:13.819Z,46.50
2022-11-05T12:46:28.441Z,47.06
2022-11-05T12:48:01.994Z,47.35
2022-11-05T12:49:42.824Z,48.15
2022-11-05T12:50:52.822Z,47.53
2022-11-05T12:52:11.906Z,47.39
2022-11-05T12:53:33.410Z,47.79
2022-11-05T12:54:47.202Z,48.14
2022-11-05T12:55:51.428Z,47.52
2022-11-05T12:56:58.864Z,47.45
2022-11-05T12:58:10.445Z,47.68
2022-11-05T12:59:22.032Z,47.35
2022-11-05T13:00:25.999Z,47.48
2022-11-05T13:01:36.736Z,47.59
2022-11-05T13:02:45.474Z,47.92
2022-11-05T13:03:54.942Z,47.85
2022-11-05T13:05:01.929Z,47.67
2022-11-05T13:06:11.607Z,48.03
2022-11-05T13:07:19.199Z,47.99
2022-11-05T13:08:25.438Z,48.73
2022-11-05T13:09:35.575Z,48.85
2022-11-05T13:10:43.145Z,48.72
2022-11-05T13:11:52.031Z,48.14
2022-11-05T13:13:02.291Z,48.60
2022-11-05T13:14:10.361Z,47.89
2022-11-05T13:15:24.984Z,48.34
2022-11-05T13:16:33.902Z,47.97
2022-11-05T13:17:50.430Z,48.25
2022-11-05T13:18:56.680Z,47.61
2022-11-05T13:20:07.174Z,48.47
2022-11-05T13:21:13.286Z,47.38
2022-11-05T13:22:23.350Z,47.42
2022-11-05T13:23:34.187Z,47.53
2022-11-05T13:24:41.039Z,47.55
2022-11-05T13:25:50.768Z,47.72
2022-11-05T13:26:57.621Z,46.70
2022-11-05T13:28:06.751Z,46.99
2022-11-05T13:29:21.742Z,46.76
2022-11-05T13:30:26.258Z,46.84
2022-11-05T13:31:34.489Z,46.33
2022-11-05T13:32:40.775Z,46.73
2022-11-05T13:33:46.586Z,46.46
2022-11-05T13:34:48.828Z,46.27
2022-11-05T13:36:17.429Z,45.57
2022-11-05T13:37:44.531Z,45.93
2022-11-05T13:38:59.520Z,46.51
2022-11-05T13:40:09.762Z,46.87
2022-11-05T13:41:26.887Z,45.77
2022-11-05T13:42:52.972Z,45.71
2022-11-05T13:44:25.769Z,45.48
2022-11-05T13:45:59.047Z,45.44
2022-11-05T13:47:37.094Z,45.33
2022-11-05T13:49:04.841Z,45.10
2022-11-05T13:50:34.409Z,45.65
2022-11-05T13:51:50.844Z,45.80
2022-11-05T13:53:16.052Z,44.79
2022-11-05T13:54:42.972Z,44.74
2022-11-05T13:56:03.321Z,44.62
2022-11-05T13:57:25.072Z,45.50
2022-11-05T13:59:03.946Z,44.67
2022-11-05T14:00:18.693Z,44.57
2022-11-05T14:01:39.451Z,44.47
2022-11-05T14:02:48.097Z,44.50
2022-11-05T14:03:52.980Z,44.00
2022-11-05T14:05:01.392Z,44.15
2022-11-05T14:06:06.711Z,44.42
2022-11-05T14:07:12.955Z,44.86
2022-11-05T14:08:20.858Z,43.72
2022-11-05T14:09:28.339Z,44.17
2022-11-05T14:10:38.359Z,44.81
2022-11-05T14:11:43.291Z,44.45
2022-11-05T14:12:51.570Z,44.17
2022-11-05T14:13:59.093Z,44.37
2022-11-05T14:15:05.377Z,44.40
2022-11-05T14:16:10.960Z,44.23
2022-11-05T14:17:25.740Z,44.79
2022-11-05T14:18:44.460Z,44.16
2022-11-05T14:20:10.511Z,44.46
2022-11-05T14:21:34.222Z,43.92
2022-11-05T14:22:39.261Z,44.38
2022-11-05T14:23:51.664Z,44.03
2022-11-05T14:24:53.919Z,43.45
2022-11-05T14:25:58.427Z,43.62
2022-11-05T14:27:53.521Z,43.13
2022-11-05T14:29:38.217Z,43.69
2022-11-05T14:30:43.536Z,43.89
2022-11-05T14:32:13.067Z,43.35
2022-11-05T14:33:29.570Z,43.61
2022-11-05T14:34:48.596Z,44.05
2022-11-05T14:35:51.556Z,44.25
2022-11-05T14:37:19.066Z,43.91
2022-11-05T14:38:25.136Z,43.39
2022-11-05T14:39:31.698Z,42.61
2022-11-05T14:40:38.969Z,42.32
2022-11-05T14:42:01.930Z,42.60
2022-11-05T14:43:09.467Z,43.00
2022-11-05T14:44:12.611Z,43.43
2022-11-05T14:45:29.786Z,42.85
2022-11-05T14:46:42.003Z,42.63
2022-11-05T14:47:54.026Z,41.89
2022-11-05T14:49:09.079Z,41.67
2022-11-05T14:50:21.005Z,41.69
2022-11-05T14:51:28.741Z,41.66
2022-11-05T14:52:33.162Z,41.97
2022-11-05T14:53:39.123Z,41.64
2022-11-05T14:54:47.725Z,41.31
2022-11-05T14:56:00.060Z,39.94
2022-11-05T14:57:03.204Z,40.76
2022-11-05T14:58:35.539Z,40.28
2022-11-05T15:00:03.674Z,41.30
2022-11-05T15:01:10.023Z,41.18
2022-11-05T15:02:15.815Z,40.93
2022-11-05T15:04:02.120Z,40.30
2022-11-05T15:05:40.783Z,40.43
2022-11-05T15:07:23.785Z,41.11
2022-11-05T15:08:32.908Z,40.54
2022-11-05T15:09:39.727Z,40.19
2022-11-05T15:10:44.266Z,41.16
2022-11-05T15:11:58.633Z,41.24
2022-11-05T15:13:05.963Z,40.53
2022-11-05T15:14:20.801Z,40.67
2022-11-05T15:15:27.801Z,40.98
2022-11-05T15:16:33.689Z,40.29
2022-11-05T15:17:46.047Z,40.68
2022-11-05T15:18:48.404Z,40.08
2022-11-05T15:19:53.706Z,40.19
2022-11-05T15:20:59.233Z,39.76
2022-11-05T15:22:06.957Z,40.26